Terminal Aerodrome Forecast
Issued by NWS Wilmington, OH

Current Version | Previous Version | Text Only | Print | Product List | Glossary Off
Versions: 1 2 3 4 5 6 7 8 9 10 11 12 13 14 15 16 17 18 19 20 21

000
FTUS41 KILN 292234 AAE
TAFILN
TAF AMD
KILN 292234Z 2923/3018 24007KT P6SM VCTS BKN045CB
      TEMPO 2923/2924 5SM -TSRA BKN035CB
     FM300100 24005KT P6SM SCT050
     FM300500 30004KT P6SM SKC
     FM301500 33008KT P6SM FEW050=

USA.gov is the U.S. government's official web portal to all federal, state and local government web resources and services.